Time;durP1;ratioP1;P1;durP2;ratioP2;P2;SDS_P1;SDS_P2;PMS_P1;PMS_P2;Temp;Humidity;BMP_temperature;BMP_pressure;BME280_temperature;BME280_humidity;BME280_pressure;Samples;Min_cycle;Max_cycle;Signal;HPM_P1;HPM_P2
2022/10/02 07:30:05;;;;;;;14.63;9.60;;;;;;;6.64;94.93;101006.97;5069560;28;20402;-76
2022/10/02 07:32:48;;;;;;;9.30;8.23;;;;;;;6.75;94.96;101010.38;5070854;28;20052;-80
2022/10/02 07:35:24;;;;;;;14.83;9.23;;;;;;;6.95;94.14;101013.97;5069233;28;20111;-74
2022/10/02 07:37:52;;;;;;;13.20;10.07;;;;;;;7.20;93.03;101017.09;5069028;28;20384;-74
2022/10/02 07:40:42;;;;;;;21.90;10.77;;;;;;;7.34;92.88;101011.44;5069564;28;20036;-76
2022/10/02 07:43:26;;;;;;;24.40;13.30;;;;;;;7.42;92.41;101006.31;5069602;28;20089;-74
2022/10/02 07:46:27;;;;;;;23.60;14.07;;;;;;;7.33;91.43;101001.81;5067630;28;20039;-75
2022/10/02 07:48:59;;;;;;;20.07;11.00;;;;;;;7.31;92.06;101004.59;5060186;28;20044;-77
2022/10/02 07:51:46;;;;;;;28.07;15.20;;;;;;;7.31;92.25;100993.19;5067583;28;20093;-77
2022/10/02 07:54:23;;;;;;;23.50;11.43;;;;;;;7.34;92.39;100995.56;5065624;28;20029;-73
2022/10/02 07:56:52;;;;;;;21.87;11.70;;;;;;;7.36;91.60;100991.78;5068623;28;20035;-78
2022/10/02 07:59:19;;;;;;;21.77;11.17;;;;;;;7.33;91.58;101009.78;5068917;28;20411;-75
2022/10/02 08:01:49;;;;;;;17.07;12.00;;;;;;;7.21;91.73;101005.53;5068445;28;20024;-76
2022/10/02 08:04:28;;;;;;;14.83;9.27;;;;;;;7.23;93.38;101000.94;5067254;28;20071;-75
2022/10/02 08:07:03;;;;;;;13.03;10.07;;;;;;;7.28;92.58;100988.16;5067585;28;20063;-77
2022/10/02 08:09:47;;;;;;;14.00;9.67;;;;;;;7.31;92.38;100994.00;5070122;28;20060;-77
2022/10/02 08:12:28;;;;;;;13.23;9.50;;;;;;;7.39;93.09;101007.41;5065656;28;20108;-74
2022/10/02 08:14:56;;;;;;;15.33;8.47;;;;;;;7.30;92.44;100997.63;5065834;28;20051;-75
2022/10/02 08:17:33;;;;;;;10.53;8.47;;;;;;;7.08;93.66;101003.97;5068218;28;20024;-78
2022/10/02 08:20:16;;;;;;;12.93;9.23;;;;;;;6.93;93.46;101002.66;5064130;28;20035;-76
2022/10/02 08:22:46;;;;;;;9.70;8.70;;;;;;;6.82;94.31;101002.75;5066909;28;20017;-74
2022/10/02 08:25:25;;;;;;;10.17;8.37;;;;;;;6.92;95.33;101010.72;5065245;28;20472;-77
2022/10/02 08:28:15;;;;;;;10.80;9.17;;;;;;;6.93;93.87;101004.47;5068049;28;20087;-82
2022/10/02 08:30:42;;;;;;;16.90;10.80;;;;;;;6.88;94.51;101010.16;5067524;28;20051;-76
2022/10/02 08:33:37;;;;;;;11.70;9.00;;;;;;;6.89;94.67;101019.78;5068104;28;20484;-77
2022/10/02 08:36:27;;;;;;;11.90;8.30;;;;;;;6.80;94.39;101013.47;5059271;28;20028;-75
2022/10/02 08:39:34;;;;;;;10.80;9.53;;;;;;;6.92;95.47;101008.91;5078212;28;20024;-78
2022/10/02 08:56:23;;;;;;;14.00;10.73;;;;;;;7.54;91.97;100994.63;5240453;22;20497;-76
2022/10/02 08:59:03;;;;;;;12.10;10.75;;;;;;;7.54;92.16;101010.53;5033984;28;20033;-77
2022/10/02 09:01:37;;;;;;;12.43;9.97;;;;;;;7.67;91.79;101010.25;5033920;28;20034;-75
2022/10/02 09:04:18;;;;;;;12.50;9.93;;;;;;;7.89;91.53;101009.16;5016597;28;20036;-77
2022/10/02 09:07:10;;;;;;;13.80;10.67;;;;;;;8.01;90.55;101013.34;5033329;28;20156;-78
2022/10/02 09:09:49;;;;;;;15.90;11.33;;;;;;;7.90;90.62;101002.88;5014286;28;20508;-75
2022/10/02 09:12:23;;;;;;;12.73;10.47;;;;;;;8.06;90.51;101006.63;5031994;28;20069;-78
2022/10/02 09:14:49;;;;;;;12.33;11.00;;;;;;;8.18;89.63;101010.00;5035930;28;20485;-78
2022/10/02 09:17:20;;;;;;;11.50;10.30;;;;;;;8.21;88.93;101004.41;5035584;28;20029;-78
2022/10/02 09:20:25;;;;;;;14.40;10.83;;;;;;;8.15;90.14;101007.63;5035560;28;20453;-81
2022/10/02 09:24:07;;;;;;;12.93;10.87;;;;;;;8.40;89.86;101008.06;5110435;27;20483;-82
2022/10/02 09:26:55;;;;;;;14.13;11.63;;;;;;;8.34;88.92;100999.66;5111222;28;20028;-79
2022/10/02 09:29:49;;;;;;;13.47;10.73;;;;;;;8.15;90.10;100973.13;5111018;28;20112;-82
2022/10/02 09:32:18;;;;;;;12.33;10.40;;;;;;;8.40;89.47;100992.13;5101802;28;20073;-81
2022/10/02 09:35:19;;;;;;;15.23;11.17;;;;;;;8.53;88.73;100987.34;5110222;28;20051;-76
2022/10/02 09:38:28;;;;;;;11.77;9.97;;;;;;;8.62;88.39;100997.06;5047698;28;20021;-81
2022/10/02 09:40:59;;;;;;;;;;;;;;;8.79;88.47;100988.38;5102307;28;20080;-75
2022/10/02 09:43:30;;;;;;;12.77;8.70;;;;;;;8.74;87.52;100995.94;5110216;28;19907;-78
2022/10/02 09:46:21;;;;;;;12.00;9.67;;;;;;;8.56;88.24;100992.34;5110215;28;20079;-80
2022/10/02 09:49:08;;;;;;;11.23;9.23;;;;;;;8.49;89.02;100991.25;5109661;28;20032;-77
2022/10/02 09:52:12;;;;;;;18.50;10.10;;;;;;;8.43;89.50;100983.88;5109680;28;20028;-79
2022/10/02 09:54:55;;;;;;;13.70;10.87;;;;;;;8.47;90.47;100985.25;5046756;28;20025;-79
2022/10/02 09:57:42;;;;;;;11.40;9.30;;;;;;;8.46;90.69;100975.63;5046567;28;20025;-74
2022/10/02 10:00:13;;;;;;;10.87;8.87;;;;;;;8.39;90.45;100970.06;5092301;28;20066;-78
2022/10/02 10:03:15;;;;;;;10.27;8.40;;;;;;;8.45;90.66;100981.91;5109543;28;20035;-77
2022/10/02 10:06:19;;;;;;;12.97;9.10;;;;;;;8.48;90.43;100973.66;5109338;28;20034;-78
2022/10/02 10:08:56;;;;;;;13.00;9.10;;;;;;;8.73;90.12;100978.34;5106213;28;20046;-77
2022/10/02 10:11:46;;;;;;;12.97;10.13;;;;;;;8.85;89.38;100977.16;5109151;28;20032;-77
2022/10/02 10:14:12;;;;;;;11.77;10.27;;;;;;;8.77;88.84;100973.56;5107930;28;20433;-79
2022/10/02 10:17:07;;;;;;;11.10;8.90;;;;;;;8.92;89.09;100975.56;5109236;28;20114;-77
2022/10/02 10:20:11;;;;;;;10.57;8.53;;;;;;;9.21;88.45;100977.25;5107750;28;20600;-74
2022/10/02 10:23:20;;;;;;;10.17;8.93;;;;;;;9.38;87.90;100986.25;5109196;28;20143;-76
2022/10/02 10:26:07;;;;;;;13.37;9.43;;;;;;;9.44;87.52;100980.34;5108802;28;20074;-76
2022/10/02 10:28:47;;;;;;;13.57;10.47;;;;;;;9.41;86.96;100972.66;5109306;28;20115;-80
2022/10/02 10:31:13;;;;;;;13.77;10.93;;;;;;;9.16;87.97;100964.41;5109931;28;20518;-77
2022/10/02 10:33:52;;;;;;;14.27;10.50;;;;;;;9.04;88.34;100960.31;5104435;28;20059;-79
2022/10/02 10:39:36;;;;;;;12.63;10.27;;;;;;;9.15;89.23;100976.03;5096396;28;20514;-81
2022/10/02 10:42:16;;;;;;;14.23;10.17;;;;;;;9.18;88.77;100974.91;5096155;28;21095;-79
2022/10/02 10:45:07;;;;;;;9.97;8.93;;;;;;;9.16;88.12;100974.22;5094483;28;20043;-80
2022/10/02 10:48:04;;;;;;;9.53;8.53;;;;;;;9.17;87.93;100963.44;5096160;28;20067;-77
2022/10/02 10:50:41;;;;;;;14.27;9.87;;;;;;;9.18;88.09;100966.94;5092285;28;20077;-80
2022/10/02 10:53:09;;;;;;;12.63;10.37;;;;;;;9.19;88.17;100960.63;5095997;28;20118;-77
2022/10/02 10:55:47;;;;;;;10.60;8.95;;;;;;;9.27;88.37;100966.88;5095411;28;20050;-76
2022/10/02 10:58:45;;;;;;;12.93;9.60;;;;;;;9.34;88.24;100960.97;5094291;28;20461;-77
2022/10/02 11:01:17;;;;;;;10.93;9.30;;;;;;;9.41;88.30;100959.38;5095713;28;20020;-79
2022/10/02 11:03:57;;;;;;;12.07;9.07;;;;;;;9.57;87.63;100970.19;5095648;28;20478;-78
2022/10/02 11:06:40;;;;;;;13.10;9.07;;;;;;;9.79;87.33;100969.72;5093541;28;20024;-79
2022/10/02 11:09:27;;;;;;;11.67;8.53;;;;;;;9.73;85.89;100966.84;5095505;28;20078;-78
2022/10/02 11:12:07;;;;;;;9.50;8.50;;;;;;;9.54;87.15;100955.38;5094467;28;20046;-76
2022/10/02 11:14:46;;;;;;;11.57;8.27;;;;;;;9.50;88.07;100951.31;5096145;28;20122;-77
2022/10/02 11:17:30;;;;;;;10.27;7.85;;;;;;;9.44;88.00;100946.63;5094016;28;20035;-77
2022/10/02 11:20:22;;;;;;;8.83;7.07;;;;;;;9.42;88.33;100945.09;5093701;28;20113;-76
2022/10/02 11:23:06;;;;;;;8.87;7.97;;;;;;;9.45;87.76;100944.78;5095293;28;20051;-77
2022/10/02 11:26:04;;;;;;;10.07;7.83;;;;;;;9.46;88.12;100941.97;5095275;28;20153;-78
2022/10/02 11:28:50;;;;;;;12.00;8.23;;;;;;;9.56;88.43;100939.28;5097421;28;20082;-78
2022/10/02 11:31:34;;;;;;;8.47;6.57;;;;;;;9.60;88.07;100936.16;5098593;28;20016;-79
2022/10/02 11:34:16;;;;;;;7.20;6.47;;;;;;;9.67;88.04;100930.22;5099786;28;20028;-79
2022/10/02 11:36:49;;;;;;;8.13;7.30;;;;;;;9.68;87.56;100927.41;5101501;28;20028;-77
2022/10/02 11:39:36;;;;;;;7.53;6.77;;;;;;;9.68;87.20;100929.25;5100278;28;20111;-78
2022/10/02 11:46:24;;;;;;;8.83;7.17;;;;;;;9.70;87.01;100935.22;5099150;28;20035;-78
2022/10/02 12:29:24;;;;;;;7.60;6.30;;;;;;;10.29;85.36;100920.41;5430033;23;20051;-78
2022/10/02 12:32:06;;;;;;;6.80;6.03;;;;;;;10.30;85.08;100922.09;4937641;29;20043;-78
2022/10/02 12:34:38;;;;;;;5.70;5.00;;;;;;;10.25;84.62;100914.56;4954683;29;20031;-78
2022/10/02 13:30:23;;;;;;;7.60;5.40;;;;;;;9.90;88.12;100923.44;5454637;23;20125;-78
2022/10/02 13:48:15;;;;;;;6.93;4.40;;;;;;;9.64;87.29;100915.41;5061143;23;20055;-79
2022/10/02 14:10:05;;;;;;;5.60;5.10;;;;;;;9.23;89.78;100946.06;4990831;28;20385;-79
2022/10/02 14:12:49;;;;;;;6.87;4.87;;;;;;;9.14;90.26;100928.34;4997781;28;20545;-80
2022/10/02 14:15:33;;;;;;;5.57;5.00;;;;;;;9.12;90.52;100932.97;5003656;28;20034;-79
2022/10/02 14:18:12;;;;;;;5.77;5.10;;;;;;;8.93;91.06;100905.53;4996211;28;20026;-79
2022/10/02 14:21:01;;;;;;;6.37;5.33;;;;;;;9.07;91.47;100937.91;5000209;28;20484;-80
2022/10/02 14:24:08;;;;;;;8.07;5.38;;;;;;;9.11;90.96;100940.13;4996410;28;20034;-80
2022/10/02 14:26:52;;;;;;;8.30;6.03;;;;;;;9.10;91.45;100941.09;4934835;29;20104;-81
2022/10/02 14:29:26;;;;;;;8.03;5.70;;;;;;;9.04;91.16;100933.72;4981861;28;20062;-81
2022/10/02 14:31:58;;;;;;;8.43;5.43;;;;;;;9.08;91.77;100939.59;5011629;28;20030;-78
2022/10/02 14:35:03;;;;;;;7.23;6.40;;;;;;;9.06;92.90;100941.56;4986067;28;20479;-77
2022/10/02 14:37:47;;;;;;;7.73;5.60;;;;;;;9.02;92.54;100945.50;4996409;28;20057;-78
2022/10/02 14:40:18;;;;;;;10.33;7.80;;;;;;;8.91;93.87;100939.38;4986331;28;20032;-78
2022/10/02 14:43:20;;;;;;;12.80;7.00;;;;;;;8.97;93.64;100949.44;5009347;28;20036;-77
2022/10/02 14:46:19;;;;;;;9.53;6.13;;;;;;;8.96;93.99;100947.75;4978785;28;20026;-77
2022/10/02 14:49:00;;;;;;;6.23;5.63;;;;;;;8.99;93.35;100952.78;4997369;28;20462;-77
2022/10/02 14:51:59;;;;;;;9.80;7.13;;;;;;;9.05;93.08;100953.16;4998284;28;20500;-75
2022/10/02 14:54:28;;;;;;;10.83;6.90;;;;;;;9.09;92.84;100946.56;4998150;28;20073;-75
2022/10/02 14:57:21;;;;;;;8.03;6.37;;;;;;;9.13;92.91;100950.59;5002510;28;20489;-84
2022/10/02 14:59:46;;;;;;;8.40;6.70;;;;;;;9.12;92.63;100944.44;4996497;28;20076;-79
2022/10/02 15:02:27;;;;;;;9.00;6.17;;;;;;;9.13;92.63;100948.78;5000085;28;20182;-77
2022/10/02 15:05:21;;;;;;;7.77;6.93;;;;;;;9.12;92.63;100951.59;5004316;28;20042;-76
2022/10/02 15:07:46;;;;;;;7.17;6.23;;;;;;;9.19;92.48;100964.13;4997994;28;20137;-78
2022/10/02 15:10:23;;;;;;;8.30;6.27;;;;;;;9.16;92.51;100948.47;4995781;28;20440;-76
2022/10/02 15:12:56;;;;;;;;;;;;;;;9.34;91.75;100975.09;5002071;28;20093;-77
2022/10/02 15:15:35;;;;;;;8.43;5.97;;;;;;;9.38;91.61;100973.81;5003652;28;19910;-80
2022/10/02 15:18:44;;;;;;;10.80;6.50;;;;;;;9.43;91.44;100976.00;5000277;28;20037;-77
2022/10/02 15:21:28;;;;;;;8.30;6.07;;;;;;;9.40;91.92;100966.53;5000825;28;20041;-75
2022/10/02 15:23:58;;;;;;;10.63;7.37;;;;;;;9.27;92.13;100961.56;5000789;28;20026;-77
2022/10/02 15:27:01;;;;;;;6.60;5.43;;;;;;;9.13;93.08;100958.56;5010559;28;20089;-76
2022/10/02 15:29:35;;;;;;;8.70;6.50;;;;;;;8.99;93.21;100957.25;5004396;28;20036;-75
2022/10/02 15:32:33;;;;;;;8.57;7.30;;;;;;;8.89;93.60;100953.78;5000655;28;20022;-77
2022/10/02 15:35:46;;;;;;;9.82;7.60;;;;;;;8.79;94.10;100943.22;4996627;28;20077;-74
2022/10/02 15:38:18;;;;;;;10.97;7.93;;;;;;;8.69;94.58;100945.09;4911276;29;20032;-73
2022/10/02 15:40:43;;;;;;;9.87;6.97;;;;;;;8.57;94.90;100939.09;4914672;29;20065;-74
2022/10/02 15:43:14;;;;;;;9.13;7.67;;;;;;;8.51;95.24;100937.03;4959386;28;20039;-74
2022/10/02 15:45:58;;;;;;;7.57;6.77;;;;;;;8.45;95.97;100947.41;5001520;28;20113;-79
2022/10/02 15:48:48;;;;;;;12.77;9.03;;;;;;;8.38;96.09;100942.69;4963890;28;20413;-75
2022/10/02 15:51:32;;;;;;;20.13;8.13;;;;;;;8.28;96.43;100930.38;4958102;28;20562;-76
2022/10/02 15:54:24;;;;;;;12.03;8.77;;;;;;;8.27;97.15;100926.03;4999401;28;20073;-74
2022/10/02 15:56:52;;;;;;;10.67;7.93;;;;;;;8.21;96.95;100924.81;4993692;28;20107;-74
2022/10/02 15:59:38;;;;;;;17.88;8.65;;;;;;;8.11;97.38;100918.69;4976846;28;20177;-74
2022/10/02 16:02:05;;;;;;;9.87;8.10;;;;;;;8.12;97.70;100925.66;4995055;28;20098;-73
2022/10/02 16:04:50;;;;;;;11.77;8.87;;;;;;;8.10;97.79;100934.75;4992348;28;20068;-74
2022/10/02 16:07:45;;;;;;;11.53;8.80;;;;;;;8.05;98.34;100929.84;4975873;28;20022;-73
2022/10/02 16:10:20;;;;;;;13.37;10.13;;;;;;;8.11;98.90;100929.31;4992899;28;20452;-76
2022/10/02 16:13:20;;;;;;;11.17;9.10;;;;;;;8.13;99.00;100932.66;4995382;28;20026;-72
2022/10/02 16:17:04;;;;;;;12.87;9.30;;;;;;;8.20;98.74;100938.22;5006940;28;20153;-74
2022/10/02 16:19:51;;;;;;;13.13;10.33;;;;;;;8.20;98.48;100939.06;4887091;29;20053;-72
2022/10/02 16:22:59;;;;;;;11.23;8.57;;;;;;;8.09;99.44;100941.84;4997395;28;20042;-73
2022/10/02 16:25:42;;;;;;;14.57;10.47;;;;;;;7.97;100.00;100938.53;4992679;28;20034;-72
2022/10/02 16:28:35;;;;;;;14.80;9.90;;;;;;;7.86;100.00;100943.16;4998913;28;20045;-72
2022/10/02 16:31:25;;;;;;;15.07;10.60;;;;;;;7.76;100.00;100946.63;4997727;28;20049;-72
2022/10/02 16:34:20;;;;;;;12.87;10.20;;;;;;;7.69;100.00;100945.50;5004168;28;20025;-72
2022/10/02 16:37:20;;;;;;;15.60;11.07;;;;;;;7.63;100.00;100954.03;5006515;28;20040;-73
2022/10/02 16:40:00;;;;;;;18.47;12.53;;;;;;;7.45;100.00;100937.13;5000116;28;20420;-75
2022/10/02 16:43:07;;;;;;;14.13;11.33;;;;;;;7.49;100.00;100943.81;5000172;28;20433;-72
2022/10/02 16:45:32;;;;;;;17.63;12.37;;;;;;;7.43;100.00;100939.06;4931825;28;20046;-72
2022/10/02 16:48:13;;;;;;;18.17;10.53;;;;;;;7.15;100.00;100909.75;4999300;28;20034;-79
2022/10/02 16:51:07;;;;;;;14.13;9.87;;;;;;;7.40;100.00;100944.66;5002096;28;20026;-80
2022/10/02 16:53:56;;;;;;;14.33;10.80;;;;;;;7.36;100.00;100945.91;4978581;28;20034;-77
2022/10/02 16:56:30;;;;;;;14.40;10.50;;;;;;;7.26;100.00;100937.13;4997311;28;20102;-77
2022/10/02 16:59:28;;;;;;;13.43;10.53;;;;;;;7.29;100.00;100947.44;4983145;28;20054;-74
2022/10/02 17:02:26;;;;;;;14.23;10.75;;;;;;;7.28;100.00;100945.75;4914525;28;20101;-76
2022/10/02 17:05:00;;;;;;;11.18;9.07;;;;;;;7.24;100.00;100941.72;4976691;28;20034;-76
2022/10/02 17:07:40;;;;;;;13.30;10.97;;;;;;;7.23;100.00;100945.31;4973310;28;20192;-77
2022/10/02 17:10:21;;;;;;;13.67;10.83;;;;;;;7.17;100.00;100919.38;4977519;28;20027;-79
2022/10/02 17:13:06;;;;;;;14.63;11.13;;;;;;;7.20;100.00;100916.44;4972108;28;20517;-75
2022/10/02 17:15:41;;;;;;;14.20;11.10;;;;;;;7.17;100.00;100914.91;4974251;28;20022;-76
2022/10/02 17:18:55;;;;;;;14.33;11.10;;;;;;;7.17;100.00;100916.72;4977548;28;20204;-75
2022/10/02 17:21:47;;;;;;;19.45;14.70;;;;;;;7.11;100.00;100921.59;4973533;28;20035;-79
2022/10/02 17:24:12;;;;;;;17.07;11.43;;;;;;;7.08;100.00;100923.69;4974786;28;20046;-76
2022/10/02 17:26:49;;;;;;;16.07;12.03;;;;;;;7.02;100.00;100924.25;4983059;28;20034;-74
2022/10/02 17:29:22;;;;;;;17.57;11.70;;;;;;;7.01;100.00;100933.16;4983938;28;20041;-77
2022/10/02 17:31:53;;;;;;;17.07;12.67;;;;;;;6.94;100.00;100927.56;4988962;28;20081;-75
2022/10/02 17:34:24;;;;;;;15.30;11.10;;;;;;;6.94;100.00;100924.06;4989871;28;20470;-77
2022/10/02 17:37:08;;;;;;;14.73;11.87;;;;;;;6.96;100.00;100925.63;4990414;28;20377;-74
2022/10/02 17:39:36;;;;;;;14.67;11.43;;;;;;;6.97;100.00;100911.41;4976901;28;20030;-75
2022/10/02 17:42:31;;;;;;;16.58;12.60;;;;;;;6.95;100.00;100917.81;4976740;28;20045;-74
2022/10/02 17:45:28;;;;;;;17.40;12.10;;;;;;;6.99;100.00;100920.06;4992404;28;20073;-75
2022/10/02 17:48:14;;;;;;;13.73;11.63;;;;;;;6.98;100.00;100928.13;4986020;28;20050;-73
2022/10/02 17:51:25;;;;;;;15.00;11.43;;;;;;;6.96;100.00;100925.63;4989740;28;20617;-75
2022/10/02 17:56:49;;;;;;;18.50;13.10;;;;;;;6.93;100.00;100936.47;4982109;28;20034;-75
2022/10/02 17:59:33;;;;;;;;;;;;;;;6.90;100.00;100939.38;4979944;28;20033;-74
2022/10/02 18:02:13;;;;;;;20.33;13.50;;;;;;;6.86;100.00;100951.22;5000087;28;20010;-73
2022/10/02 18:05:21;;;;;;;19.40;13.80;;;;;;;6.81;100.00;100948.97;5015410;28;20101;-75
2022/10/02 18:08:30;;;;;;;17.97;13.27;;;;;;;6.74;100.00;100953.13;4928403;28;20044;-76
2022/10/02 18:11:06;;;;;;;59.27;39.10;;;;;;;6.69;100.00;100951.84;4969289;28;20030;-73
2022/10/02 18:13:41;;;;;;;69.53;49.53;;;;;;;6.65;100.00;100956.59;5015499;28;20084;-75
2022/10/02 18:16:46;;;;;;;36.63;24.77;;;;;;;6.67;100.00;100945.88;5015540;28;20362;-77
2022/10/02 18:19:26;;;;;;;23.73;18.47;;;;;;;6.63;100.00;100949.72;5015545;28;20469;-74
2022/10/02 18:21:52;;;;;;;21.30;15.83;;;;;;;6.62;100.00;100940.09;5014311;28;20033;-77
2022/10/02 18:24:38;;;;;;;24.43;17.40;;;;;;;6.59;100.00;100948.31;5015785;28;20030;-78
2022/10/02 18:27:36;;;;;;;22.33;16.07;;;;;;;6.59;100.00;100950.94;4998071;28;20034;-78
2022/10/02 18:30:21;;;;;;;26.15;19.10;;;;;;;6.53;100.00;100939.09;5015366;28;20026;-76
2022/10/02 18:32:46;;;;;;;27.30;18.13;;;;;;;6.48;100.00;100946.59;4999007;28;20142;-77
2022/10/02 18:35:39;;;;;;;20.07;14.63;;;;;;;6.45;100.00;100942.41;5015444;28;20061;-78
2022/10/02 18:38:20;;;;;;;19.40;15.17;;;;;;;6.46;100.00;100937.97;5015659;28;20045;-79
2022/10/02 18:40:53;;;;;;;20.00;14.27;;;;;;;6.54;100.00;100946.06;5016371;28;20354;-75
2022/10/02 18:43:21;;;;;;;21.00;15.70;;;;;;;6.52;100.00;100948.84;5016914;28;20033;-77
2022/10/02 18:45:59;;;;;;;19.67;15.57;;;;;;;6.49;100.00;100943.81;5016815;28;20030;-78
2022/10/02 18:48:37;;;;;;;20.92;15.20;;;;;;;6.50;100.00;100945.50;5015526;28;20025;-77
2022/10/02 18:51:15;;;;;;;21.67;14.77;;;;;;;6.49;100.00;100938.53;5016503;28;20080;-76
2022/10/02 18:53:56;;;;;;;20.50;15.00;;;;;;;6.49;100.00;100943.81;5020594;28;20032;-77
2022/10/02 18:57:06;;;;;;;20.27;14.57;;;;;;;6.52;100.00;100950.66;5025399;28;20030;-76
2022/10/02 18:59:46;;;;;;;18.07;14.60;;;;;;;6.55;100.00;100946.91;4992008;28;20062;-77
2022/10/02 19:02:28;;;;;;;22.20;15.90;;;;;;;6.55;100.00;100952.19;5026537;28;20107;-76
2022/10/02 19:05:15;;;;;;;23.70;14.77;;;;;;;6.56;100.00;100954.72;5008096;28;20088;-77
2022/10/02 19:08:13;;;;;;;20.00;14.13;;;;;;;6.55;100.00;100952.19;5027061;28;20034;-75
2022/10/02 19:10:43;;;;;;;19.73;14.43;;;;;;;6.50;100.00;100950.78;5032748;28;20057;-77
2022/10/02 19:13:11;;;;;;;21.10;14.10;;;;;;;6.52;100.00;100954.13;5032085;28;20030;-77
2022/10/02 19:15:39;;;;;;;20.42;15.40;;;;;;;6.45;100.00;100938.94;5019512;28;20445;-77
2022/10/02 19:18:13;;;;;;;24.77;16.17;;;;;;;6.39;100.00;100937.66;4999859;28;20176;-78
2022/10/02 19:20:56;;;;;;;19.47;13.83;;;;;;;6.34;100.00;100923.13;5017728;28;20117;-76
2022/10/02 19:23:21;;;;;;;22.33;14.17;;;;;;;6.46;100.00;100938.78;5016671;28;20466;-77
2022/10/02 19:25:49;;;;;;;19.53;14.37;;;;;;;6.47;100.00;100940.47;5014917;28;20029;-78
2022/10/02 19:28:18;;;;;;;20.00;14.23;;;;;;;6.45;100.00;100938.94;4997040;28;20616;-75
2022/10/02 19:30:53;;;;;;;16.23;13.00;;;;;;;6.43;100.00;100935.56;4997474;28;20028;-80
2022/10/02 19:33:32;;;;;;;18.13;13.30;;;;;;;6.45;100.00;100942.41;5014673;28;20026;-75
2022/10/02 19:36:03;;;;;;;19.20;12.07;;;;;;;6.40;100.00;100933.19;5014542;28;20400;-75
2022/10/02 19:38:36;;;;;;;19.27;11.93;;;;;;;6.28;100.00;100932.41;5013978;28;20041;-77
2022/10/02 19:41:10;;;;;;;15.83;11.67;;;;;;;6.37;100.00;100950.16;5014207;28;20026;-77
2022/10/02 19:43:57;;;;;;;16.07;10.53;;;;;;;6.40;100.00;100949.91;5014212;28;20029;-78
2022/10/02 19:46:32;;;;;;;16.73;13.23;;;;;;;6.41;100.00;100951.59;5013930;28;20026;-76
2022/10/02 19:48:58;;;;;;;19.67;11.67;;;;;;;6.38;100.00;100938.63;5014131;28;20033;-79
2022/10/02 19:51:24;;;;;;;16.00;11.27;;;;;;;6.37;100.00;100944.88;4978173;28;20486;-80
2022/10/02 19:54:05;;;;;;;14.20;10.77;;;;;;;6.37;100.00;100941.41;4974730;28;20030;-78
2022/10/02 19:56:42;;;;;;;17.13;10.50;;;;;;;6.37;100.00;100944.88;4974659;28;20042;-77
2022/10/02 19:59:40;;;;;;;14.17;10.70;;;;;;;6.40;100.00;100939.31;4974594;28;20432;-77
2022/10/02 20:02:20;;;;;;;13.00;10.20;;;;;;;6.43;100.00;100941.72;4956676;28;20050;-74
2022/10/02 20:04:48;;;;;;;12.90;9.20;;;;;;;6.36;100.00;100927.34;4974626;28;20035;-79
2022/10/02 20:07:17;;;;;;;13.20;10.33;;;;;;;6.35;100.00;100930.91;4973754;28;20034;-76
2022/10/02 20:09:51;;;;;;;17.20;10.30;;;;;;;6.26;100.00;100926.44;4974059;28;20038;-76
2022/10/02 20:12:23;;;;;;;11.83;9.77;;;;;;;6.25;100.00;100923.91;4957876;28;20312;-78
2022/10/02 20:14:57;;;;;;;13.10;9.00;;;;;;;6.28;100.00;100935.06;4974224;28;20027;-75
2022/10/02 20:17:23;;;;;;;12.50;9.20;;;;;;;6.26;100.00;100925.59;4974185;28;20034;-77
2022/10/02 20:20:15;;;;;;;14.50;10.03;;;;;;;6.28;100.00;100918.34;4974303;28;20042;-76
2022/10/02 20:22:54;;;;;;;13.27;8.80;;;;;;;6.22;100.00;100920.56;4974153;28;20466;-76
2022/10/02 20:25:29;;;;;;;13.43;9.50;;;;;;;6.23;100.00;100921.41;4957063;28;20548;-75
2022/10/02 20:28:10;;;;;;;13.40;10.03;;;;;;;6.15;100.00;100913.28;4974140;28;20113;-74
2022/10/02 20:30:44;;;;;;;14.40;9.50;;;;;;;6.12;100.00;100918.84;4988425;28;20113;-78
2022/10/02 20:33:24;;;;;;;10.60;7.97;;;;;;;6.20;100.00;100938.38;4979431;28;20027;-76
2022/10/02 20:36:13;;;;;;;11.57;7.80;;;;;;;6.18;100.00;100934.19;4979246;28;20065;-75
2022/10/02 20:39:02;;;;;;;12.60;9.27;;;;;;;6.13;100.00;100934.56;4973922;28;20419;-78
2022/10/02 20:41:49;;;;;;;17.23;9.10;;;;;;;6.12;100.00;100932.06;4956371;28;20041;-75
2022/10/02 20:44:15;;;;;;;11.57;8.07;;;;;;;6.11;100.00;100935.69;4973848;28;20038;-76
2022/10/02 20:46:46;;;;;;;12.87;8.67;;;;;;;6.04;100.00;100927.41;4973613;28;20122;-78
2022/10/02 20:49:21;;;;;;;14.13;8.10;;;;;;;6.10;100.00;100939.28;4973631;28;20046;-76
2022/10/02 20:52:04;;;;;;;9.90;7.33;;;;;;;6.06;100.00;100937.84;4973921;28;20037;-76
2022/10/02 20:54:53;;;;;;;12.07;6.57;;;;;;;6.07;100.00;100936.88;4973707;28;20037;-77
2022/10/02 20:57:57;;;;;;;;;;;;;;;6.09;100.00;100938.44;4966045;28;20035;-77
2022/10/02 21:00:26;;;;;;;11.40;7.27;;;;;;;6.04;100.00;100947.72;4914795;29;19969;-77
2022/10/02 21:03:33;;;;;;;8.50;6.50;;;;;;;6.06;100.00;100946.63;4914557;29;20047;-75
2022/10/02 21:06:26;;;;;;;10.20;7.30;;;;;;;6.03;100.00;100938.94;4959604;28;20434;-78
2022/10/02 21:09:08;;;;;;;8.87;7.07;;;;;;;6.05;100.00;100950.22;4973672;28;20027;-75
2022/10/02 21:11:34;;;;;;;8.33;5.93;;;;;;;6.03;100.00;100941.59;4973539;28;20029;-76
2022/10/02 21:14:24;;;;;;;8.90;5.67;;;;;;;6.11;100.00;100939.16;4973172;28;20454;-78
2022/10/02 21:17:09;;;;;;;6.00;5.13;;;;;;;6.10;100.00;100941.94;4973817;28;20039;-75
2022/10/02 21:19:38;;;;;;;5.70;4.80;;;;;;;6.15;100.00;100950.31;4973385;28;20479;-77
2022/10/02 21:22:21;;;;;;;5.68;4.47;;;;;;;6.15;100.00;100945.84;4973220;28;20026;-78
2022/10/02 21:24:53;;;;;;;5.83;4.23;;;;;;;6.18;100.00;100947.41;4973258;28;20054;-77
2022/10/02 21:27:38;;;;;;;4.03;3.57;;;;;;;6.20;100.00;100948.09;4973302;28;20046;-75
2022/10/02 21:30:16;;;;;;;3.50;3.10;;;;;;;6.15;100.00;100939.72;4973493;28;20039;-76
2022/10/02 21:32:56;;;;;;;3.33;3.03;;;;;;;6.16;100.00;100946.69;4973359;28;20027;-79
2022/10/02 21:35:56;;;;;;;5.03;4.60;;;;;;;6.12;100.00;100940.00;4972828;28;20085;-74
2022/10/02 21:38:56;;;;;;;4.03;3.63;;;;;;;6.05;100.00;100949.38;4977754;28;20365;-74
2022/10/02 21:41:36;;;;;;;3.63;3.33;;;;;;;6.06;100.00;100940.50;4992577;28;20026;-75
2022/10/02 21:44:20;;;;;;;4.00;3.37;;;;;;;6.02;100.00;100944.34;4992450;28;20042;-76
2022/10/02 21:46:57;;;;;;;4.00;3.07;;;;;;;5.97;100.00;100951.84;4992972;28;20026;-75
2022/10/02 21:50:00;;;;;;;4.17;2.93;;;;;;;5.93;100.00;100953.91;4992428;28;20497;-77
2022/10/02 21:52:44;;;;;;;5.30;3.63;;;;;;;5.87;100.00;100949.94;4993018;28;20386;-79
2022/10/02 21:55:51;;;;;;;4.93;3.53;;;;;;;5.57;100.00;100908.41;4992891;28;20034;-78
2022/10/02 21:58:19;;;;;;;3.20;2.90;;;;;;;5.78;100.00;100948.06;4993227;28;20161;-77
2022/10/02 22:01:20;;;;;;;3.92;2.90;;;;;;;5.79;100.00;100949.75;4992990;28;20034;-79
2022/10/02 22:04:18;;;;;;;3.00;2.70;;;;;;;5.74;100.00;100946.63;4961361;28;20042;-76
2022/10/02 22:07:07;;;;;;;3.70;3.10;;;;;;;5.73;100.00;100952.88;4958720;28;20045;-77
2022/10/02 22:09:51;;;;;;;3.20;2.90;;;;;;;5.72;100.00;100948.56;4992465;28;20544;-76
2022/10/02 22:13:04;;;;;;;4.63;2.90;;;;;;;5.72;100.00;100947.72;4992171;28;20034;-78
2022/10/02 22:15:48;;;;;;;3.00;2.80;;;;;;;5.68;100.00;100946.31;4975090;28;20073;-76
2022/10/02 22:18:31;;;;;;;3.30;3.00;;;;;;;5.67;100.00;100950.75;4992597;28;20097;-79
2022/10/02 22:21:11;;;;;;;3.67;3.23;;;;;;;5.64;100.00;100951.00;4992296;28;20466;-77
2022/10/02 22:24:00;;;;;;;3.83;2.63;;;;;;;5.59;100.00;100947.91;4992480;28;20022;-75
2022/10/02 22:26:52;;;;;;;3.63;3.33;;;;;;;5.62;100.00;100947.66;4992777;28;20031;-76
2022/10/02 22:29:43;;;;;;;3.43;3.03;;;;;;;5.62;100.00;100960.84;4981918;28;20030;-76
2022/10/02 22:35:30;;;;;;;4.77;3.03;;;;;;;5.59;100.00;100969.03;5000462;28;20030;-77
2022/10/02 22:38:03;;;;;;;3.30;3.00;;;;;;;5.58;100.00;100967.38;4995445;28;20121;-77
2022/10/02 22:40:41;;;;;;;2.67;2.47;;;;;;;5.59;100.00;100969.03;4996090;28;20056;-77